createdAt,value
2022-11-05T00:00:06.155Z,19.00
2022-11-05T00:02:51.658Z,67.45
2022-11-05T00:05:37.578Z,24.88
2022-11-05T00:08:24.065Z,22.30
2022-11-05T00:10:51.363Z,21.25
2022-11-05T00:13:37.104Z,21.75
2022-11-05T00:16:22.892Z,17.77
2022-11-05T00:19:06.383Z,24.20
2022-11-05T00:21:53.801Z,17.27
2022-11-05T00:24:40.013Z,18.42
2022-11-05T00:27:08.120Z,17.50
2022-11-05T00:29:36.434Z,16.13
2022-11-05T00:32:03.786Z,16.05
2022-11-05T00:34:30.999Z,19.88
2022-11-05T00:36:58.162Z,15.77
2022-11-05T00:39:25.498Z,18.52
2022-11-05T00:42:11.454Z,16.67
2022-11-05T00:44:57.350Z,15.00
2022-11-05T00:47:43.459Z,16.98
2022-11-05T00:50:11.604Z,13.90
2022-11-05T00:52:57.823Z,17.25
2022-11-05T00:55:38.131Z,14.30
2022-11-05T00:58:15.125Z,16.30
2022-11-05T01:00:45.285Z,17.55
2022-11-05T01:03:15.728Z,11.90
2022-11-05T01:05:51.928Z,16.52
2022-11-05T01:08:21.576Z,11.48
2022-11-05T01:10:51.884Z,14.20
2022-11-05T01:13:23.168Z,19.27
2022-11-05T01:15:51.385Z,15.63
2022-11-05T01:18:21.058Z,11.57
2022-11-05T01:20:48.319Z,15.83
2022-11-05T01:23:16.319Z,14.32
2022-11-05T01:25:44.151Z,15.00
2022-11-05T01:28:11.409Z,15.30
2022-11-05T01:30:39.083Z,14.43
2022-11-05T01:33:06.313Z,14.67
2022-11-05T01:35:33.721Z,13.57
2022-11-05T01:38:00.891Z,14.13
2022-11-05T01:40:28.117Z,12.37
2022-11-05T01:42:55.353Z,17.20
2022-11-05T01:45:25.755Z,16.07
2022-11-05T01:48:01.863Z,16.23
2022-11-05T01:50:41.658Z,15.43
2022-11-05T01:53:20.814Z,15.87
2022-11-05T01:55:57.686Z,17.17
2022-11-05T01:58:28.755Z,15.20
2022-11-05T02:00:57.481Z,14.00
2022-11-05T02:03:25.634Z,16.97
2022-11-05T02:05:56.579Z,15.77
2022-11-05T02:08:53.653Z,17.43
2022-11-05T02:11:20.945Z,14.03
2022-11-05T02:13:48.977Z,18.70
2022-11-05T02:16:40.409Z,15.17
2022-11-05T02:19:27.020Z,18.23
2022-11-05T02:22:31.959Z,14.10
2022-11-05T02:25:26.910Z,14.23
2022-11-05T02:28:12.950Z,13.70
2022-11-05T02:31:03.274Z,19.53
2022-11-05T02:33:41.124Z,14.23
2022-11-05T02:36:31.249Z,18.10
2022-11-05T02:39:12.309Z,16.80
2022-11-05T02:42:11.945Z,11.30
2022-11-05T02:44:54.480Z,15.37
2022-11-05T02:47:46.902Z,15.57
2022-11-05T02:50:24.600Z,16.67
2022-11-05T02:53:02.076Z,13.17
2022-11-05T02:55:59.315Z,15.93
2022-11-05T02:58:30.528Z,18.50
2022-11-05T03:00:59.057Z,14.73
2022-11-05T03:03:32.036Z,19.17
2022-11-05T03:06:30.189Z,19.17
2022-11-05T03:09:24.961Z,15.00
2022-11-05T03:12:17.167Z,16.88
2022-11-05T03:14:50.407Z,20.73
2022-11-05T03:17:38.977Z,14.00
2022-11-05T03:20:47.155Z,13.97
2022-11-05T03:23:41.712Z,15.97
2022-11-05T03:26:22.305Z,12.33
2022-11-05T03:28:58.669Z,13.13
2022-11-05T03:31:28.572Z,13.10
2022-11-05T03:33:58.186Z,18.80
2022-11-05T03:36:30.806Z,15.65
2022-11-05T03:39:05.143Z,14.57
2022-11-05T03:41:34.960Z,11.57
2022-11-05T03:44:05.881Z,18.83
2022-11-05T03:46:38.553Z,15.43
2022-11-05T03:49:10.537Z,20.37
2022-11-05T03:51:53.588Z,12.98
2022-11-05T03:54:21.397Z,18.33
2022-11-05T03:57:10.656Z,16.50
2022-11-05T03:59:46.407Z,15.60
2022-11-05T04:02:15.813Z,18.23
2022-11-05T04:04:43.640Z,15.37
2022-11-05T04:07:30.148Z,16.47
2022-11-05T04:10:16.407Z,18.30
2022-11-05T04:13:01.906Z,17.70
2022-11-05T04:15:29.709Z,15.57
2022-11-05T04:18:00.014Z,15.23
2022-11-05T04:20:46.151Z,14.83
2022-11-05T04:23:32.037Z,18.07
2022-11-05T04:25:59.226Z,15.30
2022-11-05T04:28:46.424Z,17.47
2022-11-05T04:31:13.642Z,17.37
2022-11-05T04:33:40.844Z,14.67
2022-11-05T04:36:08.273Z,23.40
2022-11-05T04:38:35.447Z,16.97
2022-11-05T04:41:14.195Z,16.23
2022-11-05T04:43:41.481Z,17.03
2022-11-05T04:46:08.806Z,19.17
2022-11-05T04:48:37.017Z,17.93
2022-11-05T04:51:05.142Z,14.53
2022-11-05T04:53:32.366Z,18.20
2022-11-05T04:56:14.796Z,17.47
2022-11-05T04:58:42.936Z,17.17
2022-11-05T05:01:18.638Z,15.97
2022-11-05T05:03:50.137Z,14.73
2022-11-05T05:06:18.055Z,16.13
2022-11-05T05:08:50.999Z,17.40
2022-11-05T05:11:21.426Z,13.53
2022-11-05T05:13:49.616Z,16.90
2022-11-05T05:16:22.666Z,17.67
2022-11-05T05:18:50.439Z,16.70
2022-11-05T05:21:38.302Z,19.77
2022-11-05T05:24:08.728Z,13.27
2022-11-05T05:26:38.093Z,13.80
2022-11-05T05:29:06.759Z,14.77
2022-11-05T05:31:34.326Z,13.60
2022-11-05T05:34:02.116Z,19.90
2022-11-05T05:36:29.455Z,15.00
2022-11-05T05:38:56.703Z,15.37
2022-11-05T05:41:24.367Z,15.37
2022-11-05T05:43:51.609Z,16.23
2022-11-05T05:46:19.716Z,16.23
2022-11-05T05:48:51.904Z,16.90
2022-11-05T05:51:19.813Z,20.10
2022-11-05T05:53:46.994Z,21.73
2022-11-05T05:56:15.134Z,13.60
2022-11-05T05:58:42.476Z,15.20
2022-11-05T06:01:18.566Z,17.17
2022-11-05T06:03:47.385Z,18.90
2022-11-05T06:06:16.172Z,25.27
2022-11-05T06:08:43.380Z,18.60
2022-11-05T06:11:10.910Z,21.70
2022-11-05T06:13:38.453Z,16.20
2022-11-05T06:16:08.174Z,17.40
2022-11-05T06:18:36.444Z,18.97
2022-11-05T06:21:08.603Z,18.97
2022-11-05T06:23:37.861Z,19.77
2022-11-05T06:26:07.771Z,19.47
2022-11-05T06:28:35.292Z,20.23
2022-11-05T06:31:02.930Z,17.10
2022-11-05T06:33:30.228Z,16.57
2022-11-05T06:36:02.265Z,18.97
2022-11-05T06:38:32.813Z,20.67
2022-11-05T06:41:00.996Z,16.93
2022-11-05T06:43:30.663Z,25.60
2022-11-05T06:46:00.573Z,21.00
2022-11-05T06:48:29.022Z,22.00
2022-11-05T06:50:56.305Z,25.50
2022-11-05T06:53:23.517Z,19.03
2022-11-05T06:55:50.770Z,18.30
2022-11-05T06:58:18.124Z,20.47
2022-11-05T07:00:45.930Z,20.80
2022-11-05T07:03:14.110Z,21.83
2022-11-05T07:05:49.354Z,20.10
2022-11-05T07:08:16.879Z,22.97
2022-11-05T07:10:44.219Z,20.50
2022-11-05T07:13:12.121Z,20.77
2022-11-05T07:15:39.539Z,18.37
2022-11-05T07:18:09.684Z,22.13
2022-11-05T07:20:36.889Z,20.03
2022-11-05T07:23:10.592Z,21.20
2022-11-05T07:25:40.903Z,16.90
2022-11-05T07:28:08.923Z,16.43
2022-11-05T07:30:36.946Z,15.97
2022-11-05T07:33:04.471Z,18.40
2022-11-05T07:35:32.107Z,18.70
2022-11-05T07:37:59.591Z,19.30
2022-11-05T07:40:28.549Z,18.47
2022-11-05T07:42:58.434Z,14.90
2022-11-05T07:45:27.457Z,18.17
2022-11-05T07:47:57.273Z,18.30
2022-11-05T07:50:26.895Z,17.97
2022-11-05T07:52:59.036Z,14.60
2022-11-05T07:55:26.336Z,20.30
2022-11-05T07:57:53.658Z,16.47
2022-11-05T08:00:23.018Z,16.23
2022-11-05T08:03:03.827Z,16.50
2022-11-05T08:05:36.854Z,18.43
2022-11-05T08:08:05.027Z,16.00
2022-11-05T08:10:34.049Z,14.57
2022-11-05T08:13:01.767Z,18.20
2022-11-05T08:15:29.317Z,17.67
2022-11-05T08:18:03.731Z,14.40
2022-11-05T08:20:31.639Z,13.77
2022-11-05T08:22:58.942Z,15.80
2022-11-05T08:25:26.638Z,15.83
2022-11-05T08:28:06.198Z,12.23
2022-11-05T08:30:33.699Z,11.70
2022-11-05T08:33:03.724Z,14.95
2022-11-05T08:35:31.044Z,13.97
2022-11-05T08:37:59.303Z,10.50
2022-11-05T08:40:27.082Z,14.33
2022-11-05T08:42:57.557Z,15.63
2022-11-05T08:45:25.997Z,12.68
2022-11-05T08:48:07.805Z,14.80
2022-11-05T08:50:35.943Z,16.63
2022-11-05T08:53:04.236Z,13.88
2022-11-05T08:55:31.951Z,19.70
2022-11-05T08:58:04.171Z,18.13
2022-11-05T09:00:34.734Z,14.18
2022-11-05T09:03:04.291Z,11.40
2022-11-05T09:05:37.553Z,12.27
2022-11-05T09:08:13.336Z,13.55
2022-11-05T09:10:41.552Z,10.85
2022-11-05T09:13:14.659Z,12.90
2022-11-05T09:15:44.239Z,15.20
2022-11-05T09:18:13.881Z,13.48
2022-11-05T09:20:41.928Z,7.50
2022-11-05T09:23:11.392Z,11.40
2022-11-05T09:25:39.024Z,9.95
2022-11-05T09:28:21.366Z,9.18
2022-11-05T09:30:52.910Z,9.35
2022-11-05T09:33:25.218Z,8.55
2022-11-05T09:35:53.466Z,8.65
2022-11-05T09:38:20.843Z,8.48
2022-11-05T09:41:03.053Z,12.32
2022-11-05T09:43:44.208Z,12.20
2022-11-05T09:46:17.319Z,13.65
2022-11-05T09:48:48.520Z,12.75
2022-11-05T09:51:22.395Z,7.22
2022-11-05T09:53:51.634Z,9.55
2022-11-05T09:56:26.512Z,8.75
2022-11-05T09:59:18.212Z,6.38
2022-11-05T10:01:46.298Z,10.20
2022-11-05T10:04:19.579Z,11.65
2022-11-05T10:06:53.770Z,10.77
2022-11-05T10:09:24.477Z,5.35
2022-11-05T10:12:00.298Z,9.20
2022-11-05T10:14:31.890Z,9.48
2022-11-05T10:17:10.466Z,8.45
2022-11-05T10:20:02.310Z,6.68
2022-11-05T10:22:31.622Z,8.35
2022-11-05T10:24:59.916Z,5.32
2022-11-05T10:27:34.213Z,4.90
2022-11-05T10:30:01.632Z,6.93
2022-11-05T10:32:31.427Z,6.78
2022-11-05T10:35:00.856Z,9.80
2022-11-05T10:37:29.330Z,8.52
2022-11-05T10:39:56.985Z,5.80
2022-11-05T10:42:46.042Z,8.90
2022-11-05T10:45:36.757Z,6.18
2022-11-05T10:48:22.741Z,9.35
2022-11-05T10:50:49.982Z,7.15
2022-11-05T10:53:27.063Z,6.28
2022-11-05T10:55:54.599Z,7.78
2022-11-05T10:58:27.395Z,5.68
2022-11-05T11:00:54.617Z,7.40
2022-11-05T11:03:40.206Z,9.48
2022-11-05T11:06:39.085Z,5.50
2022-11-05T11:09:17.912Z,8.77
2022-11-05T11:11:45.243Z,4.82
2022-11-05T11:14:12.464Z,6.20
2022-11-05T11:16:45.592Z,5.05
2022-11-05T11:19:34.079Z,4.22
2022-11-05T11:22:04.393Z,5.38
2022-11-05T11:24:40.477Z,10.25
2022-11-05T11:27:14.745Z,5.07
2022-11-05T11:29:49.077Z,5.63
2022-11-05T11:32:19.528Z,4.75
2022-11-05T11:34:51.011Z,6.57
2022-11-05T11:37:25.545Z,5.90
2022-11-05T11:40:13.027Z,4.43
2022-11-05T11:42:44.181Z,6.82
2022-11-05T11:45:31.373Z,3.65
2022-11-05T11:48:02.789Z,3.80
2022-11-05T11:50:42.069Z,5.72
2022-11-05T11:53:21.438Z,2.75
2022-11-05T11:56:11.975Z,3.03
2022-11-05T11:58:43.730Z,2.25
2022-11-05T12:01:29.788Z,7.25
2022-11-05T12:04:25.290Z,3.30
2022-11-05T12:06:58.478Z,5.25
2022-11-05T12:09:56.527Z,2.38
2022-11-05T12:12:44.786Z,7.68
2022-11-05T12:15:11.928Z,4.32
2022-11-05T12:17:50.403Z,3.70
2022-11-05T12:20:26.052Z,7.05
2022-11-05T12:23:29.318Z,8.00
2022-11-05T12:26:02.553Z,5.63
2022-11-05T12:29:17.899Z,4.53
2022-11-05T12:32:25.757Z,3.22
2022-11-05T12:35:19.425Z,6.53
2022-11-05T12:37:51.700Z,3.15
2022-11-05T12:40:59.724Z,3.47
2022-11-05T12:43:45.568Z,7.68
2022-11-05T12:46:31.375Z,2.50
2022-11-05T12:49:31.135Z,8.38
2022-11-05T12:52:14.910Z,8.07
2022-11-05T12:55:22.278Z,6.32
2022-11-05T12:57:53.381Z,6.22
2022-11-05T13:00:25.710Z,6.47
2022-11-05T13:03:02.094Z,3.70
2022-11-05T13:05:40.443Z,3.13
2022-11-05T13:08:15.843Z,3.45
2022-11-05T13:10:51.909Z,4.47
2022-11-05T13:13:33.761Z,4.40
2022-11-05T13:16:20.107Z,3.70
2022-11-05T13:18:52.369Z,4.07
2022-11-05T13:21:24.115Z,4.70
2022-11-05T13:24:05.850Z,5.88
2022-11-05T13:26:47.101Z,4.70
2022-11-05T13:29:20.255Z,2.95
2022-11-05T13:32:02.813Z,3.70
2022-11-05T13:34:36.393Z,13.30
2022-11-05T13:37:26.368Z,6.13
2022-11-05T13:39:58.372Z,4.60
2022-11-05T13:42:51.476Z,3.17
2022-11-05T13:46:00.125Z,3.65
2022-11-05T13:49:04.135Z,4.97
2022-11-05T13:51:47.627Z,4.20
2022-11-05T13:54:33.176Z,3.78
2022-11-05T13:57:15.224Z,5.32
2022-11-05T14:00:12.309Z,3.85
2022-11-05T14:02:44.002Z,3.10
2022-11-05T14:05:48.974Z,1.75
2022-11-05T14:08:24.479Z,4.85
2022-11-05T14:11:17.650Z,6.22
2022-11-05T14:13:46.326Z,2.80
2022-11-05T14:16:24.965Z,2.25
2022-11-05T14:19:17.995Z,6.18
2022-11-05T14:21:57.175Z,3.25
2022-11-05T14:24:43.340Z,4.15
2022-11-05T14:27:13.589Z,2.63
2022-11-05T14:29:51.461Z,3.40
2022-11-05T14:32:18.790Z,3.22
2022-11-05T14:34:54.413Z,5.95
2022-11-05T14:37:25.125Z,4.82
2022-11-05T14:39:54.541Z,7.57
2022-11-05T14:42:30.890Z,5.50
2022-11-05T14:45:27.242Z,8.43
2022-11-05T14:48:02.735Z,6.47
2022-11-05T14:50:35.496Z,8.10
2022-11-05T14:53:38.841Z,5.63
2022-11-05T14:56:09.401Z,5.53
2022-11-05T14:58:41.505Z,3.33
2022-11-05T15:01:14.932Z,3.25
2022-11-05T15:03:46.259Z,4.35
2022-11-05T15:06:33.090Z,4.35
2022-11-05T15:09:03.321Z,5.63
2022-11-05T15:11:33.071Z,7.50
2022-11-05T15:14:08.316Z,5.10
2022-11-05T15:16:42.721Z,4.25
2022-11-05T15:19:19.757Z,2.88
2022-11-05T15:21:47.769Z,5.70
2022-11-05T15:24:17.575Z,7.80
2022-11-05T15:27:20.565Z,2.50
2022-11-05T15:29:47.909Z,5.50
2022-11-05T15:32:23.542Z,3.35
2022-11-05T15:34:53.183Z,4.00
2022-11-05T15:37:23.713Z,5.10
2022-11-05T15:39:53.188Z,3.67
2022-11-05T15:42:23.535Z,4.43
2022-11-05T15:45:05.605Z,3.63
2022-11-05T15:47:36.757Z,2.90
2022-11-05T15:50:14.710Z,5.75
2022-11-05T15:52:51.554Z,2.28
2022-11-05T15:55:23.662Z,3.58
2022-11-05T15:57:58.078Z,4.32
2022-11-05T16:00:28.389Z,3.75
2022-11-05T16:03:02.875Z,6.65
2022-11-05T16:05:41.385Z,3.38
2022-11-05T16:08:24.956Z,3.25
2022-11-05T16:11:00.641Z,4.68
2022-11-05T16:13:33.725Z,4.95
2022-11-05T16:16:22.650Z,3.00
2022-11-05T16:18:49.931Z,2.60
2022-11-05T16:21:19.448Z,4.20
2022-11-05T16:23:49.811Z,3.92
2022-11-05T16:27:00.078Z,3.80
2022-11-05T16:29:27.715Z,6.82
2022-11-05T16:31:56.851Z,3.25
2022-11-05T16:34:27.115Z,4.70
2022-11-05T16:36:56.922Z,5.97
2022-11-05T16:39:24.617Z,4.22
2022-11-05T16:41:51.946Z,4.38
2022-11-05T16:44:19.166Z,6.03
2022-11-05T16:46:49.995Z,4.55
2022-11-05T16:49:17.795Z,4.35
2022-11-05T16:51:45.037Z,4.93
2022-11-05T16:54:12.225Z,5.60
2022-11-05T16:56:42.282Z,13.48
2022-11-05T16:59:12.592Z,3.63
2022-11-05T17:01:41.909Z,4.88
2022-11-05T17:04:12.506Z,5.20
2022-11-05T17:06:39.869Z,5.05
2022-11-05T17:09:07.151Z,6.00
2022-11-05T17:11:34.584Z,11.77
2022-11-05T17:14:02.181Z,5.38
2022-11-05T17:16:30.267Z,14.82
2022-11-05T17:18:57.636Z,6.43
2022-11-05T17:21:24.880Z,7.25
2022-11-05T17:23:52.047Z,6.75
2022-11-05T17:26:19.583Z,7.18
2022-11-05T17:28:46.835Z,8.45
2022-11-05T17:31:14.915Z,8.27
2022-11-05T17:33:42.129Z,6.30
2022-11-05T17:36:13.510Z,6.97
2022-11-05T17:38:41.031Z,6.13
2022-11-05T17:41:16.964Z,9.23
2022-11-05T17:43:44.591Z,9.57
2022-11-05T17:46:14.793Z,5.78
2022-11-05T17:48:43.013Z,6.60
2022-11-05T17:51:12.125Z,10.57
2022-11-05T17:53:39.407Z,8.52
2022-11-05T17:56:11.211Z,7.07
2022-11-05T17:58:39.520Z,5.88
2022-11-05T18:01:09.058Z,7.07
2022-11-05T18:03:36.365Z,8.30
2022-11-05T18:06:05.671Z,10.07
2022-11-05T18:08:33.386Z,6.60
2022-11-05T18:11:00.609Z,6.35
2022-11-05T18:13:27.826Z,7.30
2022-11-05T18:15:55.069Z,5.53
2022-11-05T18:18:22.439Z,7.30
2022-11-05T18:20:49.719Z,7.07
2022-11-05T18:23:17.005Z,8.48
2022-11-05T18:25:44.280Z,14.00
2022-11-05T18:28:11.653Z,9.07
2022-11-05T18:30:39.885Z,7.15
2022-11-05T18:33:07.300Z,6.00
2022-11-05T18:35:39.551Z,6.97
2022-11-05T18:38:06.758Z,7.97
2022-11-05T18:40:34.476Z,10.95
2022-11-05T18:43:01.722Z,7.28
2022-11-05T18:45:29.988Z,10.60
2022-11-05T18:48:02.630Z,7.38
2022-11-05T18:50:30.309Z,9.02
2022-11-05T18:52:57.665Z,8.13
2022-11-05T18:55:24.992Z,6.53
2022-11-05T18:57:52.248Z,13.10
2022-11-05T19:00:20.211Z,8.77
2022-11-05T19:02:47.520Z,8.25
2022-11-05T19:05:28.491Z,6.97
2022-11-05T19:07:56.826Z,10.30
2022-11-05T19:10:24.148Z,8.50
2022-11-05T19:12:51.331Z,8.35
2022-11-05T19:15:18.884Z,15.52
2022-11-05T19:17:46.223Z,9.27
2022-11-05T19:20:13.500Z,7.53
2022-11-05T19:22:40.790Z,7.80
2022-11-05T19:25:08.153Z,8.25
2022-11-05T19:27:37.421Z,8.57
2022-11-05T19:30:05.631Z,5.70
2022-11-05T19:32:32.921Z,7.20
2022-11-05T19:35:00.113Z,9.77
2022-11-05T19:37:27.325Z,7.50
2022-11-05T19:39:54.524Z,7.75
2022-11-05T19:42:22.118Z,7.75
2022-11-05T19:44:49.421Z,7.93
2022-11-05T19:47:16.696Z,11.07
2022-11-05T19:49:47.570Z,11.25
2022-11-05T19:52:18.822Z,8.93
2022-11-05T19:54:50.152Z,13.13
2022-11-05T19:57:17.539Z,10.05
2022-11-05T19:59:45.043Z,10.05
2022-11-05T20:02:16.608Z,7.55
2022-11-05T20:04:54.072Z,25.27
2022-11-05T20:07:21.608Z,9.25
2022-11-05T20:09:48.799Z,14.10
2022-11-05T20:12:16.026Z,8.07
2022-11-05T20:14:43.289Z,9.45
2022-11-05T20:17:10.776Z,11.75
2022-11-05T20:19:39.040Z,11.38
2022-11-05T20:22:06.635Z,13.20
2022-11-05T20:24:34.371Z,12.55
2022-11-05T20:27:01.688Z,13.10
2022-11-05T20:29:35.017Z,17.75
2022-11-05T20:32:04.141Z,13.15
2022-11-05T20:34:32.985Z,10.05
2022-11-05T20:37:00.895Z,10.18
2022-11-05T20:39:28.218Z,11.32
2022-11-05T20:41:56.758Z,11.50
2022-11-05T20:44:24.050Z,10.88
2022-11-05T20:46:51.268Z,12.20
2022-11-05T20:49:22.647Z,8.77
2022-11-05T20:51:52.498Z,12.45
2022-11-05T20:54:19.717Z,9.27
2022-11-05T20:56:47.014Z,12.32
2022-11-05T20:59:14.262Z,14.90
2022-11-05T21:01:41.705Z,16.00
2022-11-05T21:04:09.291Z,14.20
2022-11-05T21:06:36.624Z,10.05
2022-11-05T21:09:05.790Z,14.48
2022-11-05T21:11:52.924Z,13.40
2022-11-05T21:14:20.221Z,12.88
2022-11-05T21:16:47.583Z,7.25
2022-11-05T21:19:22.139Z,11.57
2022-11-05T21:21:49.920Z,17.58
2022-11-05T21:24:17.556Z,10.57
2022-11-05T21:26:45.099Z,9.38
2022-11-05T21:29:12.438Z,8.07
2022-11-05T21:31:39.820Z,7.32
2022-11-05T21:34:07.305Z,6.38
2022-11-05T21:36:34.700Z,6.60
2022-11-05T21:39:10.458Z,9.90
2022-11-05T21:41:43.902Z,11.55
2022-11-05T21:44:11.877Z,11.90
2022-11-05T21:46:39.465Z,9.65
2022-11-05T21:49:06.923Z,10.65
2022-11-05T21:51:52.702Z,8.57
2022-11-05T21:54:38.578Z,5.55
2022-11-05T21:57:27.352Z,7.43
2022-11-05T21:59:57.422Z,6.43
2022-11-05T22:02:28.761Z,5.75
2022-11-05T22:04:59.846Z,6.80
2022-11-05T22:07:37.093Z,7.40
2022-11-05T22:10:15.933Z,13.65
2022-11-05T22:12:44.867Z,9.15
2022-11-05T22:15:14.168Z,9.60
2022-11-05T22:17:46.483Z,9.60
2022-11-05T22:20:15.218Z,6.78
2022-11-05T22:22:42.619Z,7.72
2022-11-05T22:25:10.001Z,13.80
2022-11-05T22:27:37.198Z,9.35
2022-11-05T22:30:04.928Z,10.40
2022-11-05T22:32:33.409Z,8.95
2022-11-05T22:35:00.604Z,17.10
2022-11-05T22:37:27.914Z,9.00
2022-11-05T22:39:55.251Z,13.63
2022-11-05T22:42:22.783Z,7.70
2022-11-05T22:44:50.869Z,10.20
2022-11-05T22:47:18.303Z,13.25
2022-11-05T22:49:46.014Z,9.02
2022-11-05T22:52:13.313Z,11.23
2022-11-05T22:54:40.485Z,10.52
2022-11-05T22:57:08.543Z,10.00
2022-11-05T22:59:35.793Z,11.07
2022-11-05T23:02:09.184Z,5.97
2022-11-05T23:04:37.757Z,6.85
2022-11-05T23:07:27.666Z,10.23
2022-11-05T23:10:16.876Z,9.95
2022-11-05T23:12:44.599Z,10.13
2022-11-05T23:15:32.478Z,7.88
2022-11-05T23:18:18.532Z,8.00
2022-11-05T23:21:04.301Z,6.13
2022-11-05T23:23:50.077Z,7.28
2022-11-05T23:26:35.713Z,9.30
2022-11-05T23:29:04.241Z,7.57
2022-11-05T23:31:50.074Z,7.72
2022-11-05T23:34:17.273Z,6.53
2022-11-05T23:37:02.907Z,7.18
2022-11-05T23:39:30.165Z,13.00
2022-11-05T23:42:15.990Z,6.18
2022-11-05T23:45:02.039Z,7.80
2022-11-05T23:47:47.709Z,9.25
2022-11-05T23:50:15.033Z,7.22
2022-11-05T23:52:42.222Z,7.57
2022-11-05T23:55:09.820Z,7.53
2022-11-05T23:57:37.971Z,9.10
